createdAt,value
2019-03-01T00:00:22.766Z,1007.71
2019-03-01T00:01:22.752Z,1007.74
2019-03-01T00:02:22.743Z,1007.70
2019-03-01T00:03:22.747Z,1007.74
2019-03-01T00:04:23.149Z,1007.67
2019-03-01T00:05:22.708Z,1007.69
2019-03-01T00:06:22.698Z,1007.62
2019-03-01T00:07:23.632Z,1007.67
2019-03-01T00:08:23.638Z,1007.66
2019-03-01T00:09:22.679Z,1007.66
2019-03-01T00:10:23.633Z,1007.68
2019-03-01T00:11:22.650Z,1007.65
2019-03-01T00:12:23.132Z,1007.62
2019-03-01T00:13:23.132Z,1007.63
2019-03-01T00:14:22.620Z,1007.65
2019-03-01T00:15:22.616Z,1007.62
2019-03-01T00:16:22.592Z,1007.57
2019-03-01T00:17:22.582Z,1007.59
2019-03-01T00:18:22.569Z,1007.58
2019-03-01T00:19:22.557Z,1007.52
2019-03-01T00:20:22.556Z,1007.62
2019-03-01T00:21:23.134Z,1007.57
2019-03-01T00:22:23.138Z,1007.51
2019-03-01T00:23:22.523Z,1007.49
2019-03-01T00:24:23.132Z,1007.55
2019-03-01T00:25:22.515Z,1007.43
2019-03-01T00:26:22.537Z,1007.50
2019-03-01T00:27:22.479Z,1007.49
2019-03-01T00:28:23.141Z,1007.47
2019-03-01T00:29:22.460Z,1007.53
2019-03-01T00:30:22.644Z,1007.50
2019-03-01T00:31:22.428Z,1007.45
2019-03-01T00:32:22.416Z,1007.51
2019-03-01T00:33:22.423Z,1007.47
2019-03-01T00:34:22.399Z,1007.44
2019-03-01T00:35:22.400Z,1007.41
2019-03-01T00:36:22.375Z,1007.47
2019-03-01T00:37:23.133Z,1007.40
2019-03-01T00:38:23.145Z,1007.43
2019-03-01T00:39:22.345Z,1007.42
2019-03-01T00:40:22.339Z,1007.37
2019-03-01T00:41:22.643Z,1007.36
2019-03-01T00:42:23.133Z,1007.39
2019-03-01T00:43:23.158Z,1007.35
2019-03-01T00:44:22.293Z,1007.31
2019-03-01T00:45:22.307Z,1007.34
2019-03-01T00:46:22.279Z,1007.32
2019-03-01T00:47:22.256Z,1007.33
2019-03-01T00:48:23.143Z,1007.29
2019-03-01T00:49:22.239Z,1007.32
2019-03-01T00:50:22.227Z,1007.26
2019-03-01T00:51:22.234Z,1007.31
2019-03-01T00:52:22.204Z,1007.32
2019-03-01T00:53:22.207Z,1007.29
2019-03-01T00:54:22.177Z,1007.20
2019-03-01T00:55:22.170Z,1007.26
2019-03-01T00:56:22.168Z,1007.23
2019-03-01T00:57:22.148Z,1007.22
2019-03-01T00:58:22.143Z,1007.19
2019-03-01T00:59:22.128Z,1007.19
2019-03-01T01:00:22.118Z,1007.14
2019-03-01T01:01:22.158Z,1007.12
2019-03-01T01:02:22.640Z,1007.09
2019-03-01T01:03:22.085Z,1007.13
2019-03-01T01:04:22.074Z,1007.17
2019-03-01T01:05:22.065Z,1007.12
2019-03-01T01:06:22.150Z,1007.09
2019-03-01T01:07:22.044Z,1007.05
2019-03-01T01:08:22.029Z,1007.07
2019-03-01T01:09:22.021Z,1007.10
2019-03-01T01:10:22.008Z,1007.04
2019-03-01T01:11:21.998Z,1007.07
2019-03-01T01:12:21.996Z,1007.06
2019-03-01T01:13:21.976Z,1007.04
2019-03-01T01:14:21.963Z,1006.99
2019-03-01T01:15:21.961Z,1007.01
2019-03-01T01:16:21.944Z,1007.01
2019-03-01T01:17:21.948Z,1007.01
2019-03-01T01:18:22.635Z,1006.97
2019-03-01T01:19:21.909Z,1006.99
2019-03-01T01:20:21.902Z,1006.99
2019-03-01T01:21:21.888Z,1006.92
2019-03-01T01:22:21.907Z,1007.01
2019-03-01T01:23:22.637Z,1006.98
2019-03-01T01:24:22.646Z,1007.02
2019-03-01T01:25:21.846Z,1006.99
2019-03-01T01:26:21.835Z,1006.96
2019-03-01T01:27:22.156Z,1007.00
2019-03-01T01:28:21.814Z,1006.94
2019-03-01T01:29:21.818Z,1006.93
2019-03-01T01:30:22.640Z,1006.92
2019-03-01T01:31:21.785Z,1006.90
2019-03-01T01:32:22.150Z,1006.89
2019-03-01T01:33:21.758Z,1006.95
2019-03-01T01:34:21.749Z,1006.93
2019-03-01T01:35:22.639Z,1006.87
2019-03-01T01:36:21.726Z,1006.90
2019-03-01T01:37:21.725Z,1006.88
2019-03-01T01:38:21.703Z,1006.85
2019-03-01T01:39:23.108Z,1006.84
2019-03-01T01:40:22.638Z,1006.84
2019-03-01T01:41:22.645Z,1006.79
2019-03-01T01:42:21.674Z,1006.83
2019-03-01T01:43:22.433Z,1006.79
2019-03-01T01:44:21.638Z,1006.78
2019-03-01T01:45:22.141Z,1006.81
2019-03-01T01:46:21.618Z,1006.78
2019-03-01T01:47:21.606Z,1006.75
2019-03-01T01:48:21.608Z,1006.79
2019-03-01T01:49:21.583Z,1006.76
2019-03-01T01:50:21.573Z,1006.79
2019-03-01T01:51:22.141Z,1006.78
2019-03-01T01:52:22.145Z,1006.70
2019-03-01T01:53:21.545Z,1006.73
2019-03-01T01:54:21.533Z,1006.72
2019-03-01T01:55:21.516Z,1006.70
2019-03-01T01:56:21.506Z,1006.70
2019-03-01T01:57:22.139Z,1006.65
2019-03-01T01:58:21.502Z,1006.61
2019-03-01T01:59:21.486Z,1006.53
2019-03-01T02:00:21.462Z,1006.64
2019-03-01T02:01:21.452Z,1006.62
2019-03-01T02:02:22.156Z,1006.56
2019-03-01T02:03:21.445Z,1006.63
2019-03-01T02:04:21.421Z,1006.59
2019-03-01T02:05:21.412Z,1006.62
2019-03-01T02:06:21.396Z,1006.59
2019-03-01T02:07:21.388Z,1006.58
2019-03-01T02:08:21.651Z,1006.54
2019-03-01T02:09:21.365Z,1006.51
2019-03-01T02:10:22.139Z,1006.51
2019-03-01T02:11:22.142Z,1006.56
2019-03-01T02:12:21.334Z,1006.54
2019-03-01T02:13:21.651Z,1006.57
2019-03-01T02:14:21.310Z,1006.56
2019-03-01T02:15:22.141Z,1006.56
2019-03-01T02:16:21.293Z,1006.55
2019-03-01T02:17:21.279Z,1006.58
2019-03-01T02:18:21.654Z,1006.57
2019-03-01T02:19:21.267Z,1006.58
2019-03-01T02:20:22.141Z,1006.59
2019-03-01T02:21:21.238Z,1006.54
2019-03-01T02:22:21.226Z,1006.58
2019-03-01T02:23:21.243Z,1006.55
2019-03-01T02:24:21.221Z,1006.53
2019-03-01T02:25:21.193Z,1006.56
2019-03-01T02:26:21.184Z,1006.53
2019-03-01T02:27:21.169Z,1006.49
2019-03-01T02:28:21.174Z,1006.53
2019-03-01T02:29:21.166Z,1006.49
2019-03-01T02:30:21.142Z,1006.49
2019-03-01T02:31:21.138Z,1006.48
2019-03-01T02:32:21.122Z,1006.42
2019-03-01T02:33:21.122Z,1006.46
2019-03-01T02:34:21.146Z,1006.46
2019-03-01T02:35:21.644Z,1006.45
2019-03-01T02:36:21.665Z,1006.48
2019-03-01T02:37:21.064Z,1006.41
2019-03-01T02:38:21.156Z,1006.43
2019-03-01T02:39:21.065Z,1006.43
2019-03-01T02:40:21.035Z,1006.46
2019-03-01T02:41:21.645Z,1006.41
2019-03-01T02:42:21.013Z,1006.41
2019-03-01T02:43:21.157Z,1006.42
2019-03-01T02:44:21.021Z,1006.42
2019-03-01T02:45:20.974Z,1006.42
2019-03-01T02:46:20.965Z,1006.38
2019-03-01T02:47:20.954Z,1006.43
2019-03-01T02:48:20.956Z,1006.40
2019-03-01T02:49:21.166Z,1006.36
2019-03-01T02:50:20.923Z,1006.30
2019-03-01T02:51:20.913Z,1006.37
2019-03-01T02:52:21.643Z,1006.34
2019-03-01T02:53:20.892Z,1006.34
2019-03-01T02:54:20.925Z,1006.29
2019-03-01T02:55:20.872Z,1006.33
2019-03-01T02:56:20.864Z,1006.30
2019-03-01T02:57:20.846Z,1006.26
2019-03-01T02:58:20.838Z,1006.34
2019-03-01T02:59:20.877Z,1006.31
2019-03-01T03:00:20.816Z,1006.28
2019-03-01T03:01:20.814Z,1006.22
2019-03-01T03:02:20.793Z,1006.28
2019-03-01T03:03:20.789Z,1006.23
2019-03-01T03:04:20.793Z,1006.24
2019-03-01T03:05:20.761Z,1006.27
2019-03-01T03:06:21.648Z,1006.20
2019-03-01T03:07:20.744Z,1006.21
2019-03-01T03:08:20.727Z,1006.12
2019-03-01T03:09:20.740Z,1006.17
2019-03-01T03:10:20.705Z,1006.21
2019-03-01T03:11:20.695Z,1006.18
2019-03-01T03:12:20.683Z,1006.19
2019-03-01T03:13:20.673Z,1006.21
2019-03-01T03:14:20.686Z,1006.16
2019-03-01T03:15:20.651Z,1006.12
2019-03-01T03:16:20.642Z,1006.12
2019-03-01T03:17:20.629Z,1006.11
2019-03-01T03:18:20.618Z,1006.12
2019-03-01T03:19:20.675Z,1006.09
2019-03-01T03:20:20.601Z,1006.10
2019-03-01T03:21:20.586Z,1006.12
2019-03-01T03:22:20.574Z,1006.17
2019-03-01T03:23:20.572Z,1006.13
2019-03-01T03:24:20.568Z,1006.09
2019-03-01T03:25:20.547Z,1006.16
2019-03-01T03:26:21.148Z,1006.12
2019-03-01T03:27:21.146Z,1006.18
2019-03-01T03:28:20.505Z,1006.15
2019-03-01T03:29:21.153Z,1006.10
2019-03-01T03:30:20.549Z,1006.11
2019-03-01T03:31:20.477Z,1006.14
2019-03-01T03:32:20.474Z,1006.18
2019-03-01T03:33:20.480Z,1006.12
2019-03-01T03:34:20.461Z,1006.07
2019-03-01T03:35:20.441Z,1006.14
2019-03-01T03:36:20.420Z,1006.22
2019-03-01T03:37:20.407Z,1006.10
2019-03-01T03:38:21.172Z,1006.17
2019-03-01T03:39:20.385Z,1006.13
2019-03-01T03:40:20.478Z,1006.17
2019-03-01T03:41:20.367Z,1006.15
2019-03-01T03:42:20.356Z,1006.16
2019-03-01T03:43:22.680Z,1006.15
2019-03-01T03:44:20.333Z,1006.13
2019-03-01T03:45:20.686Z,1006.17
2019-03-01T03:46:20.310Z,1006.17
2019-03-01T03:47:20.299Z,1006.16
2019-03-01T03:48:20.292Z,1006.11
2019-03-01T03:49:20.279Z,1006.13
2019-03-01T03:50:20.290Z,1006.13
2019-03-01T03:51:21.181Z,1006.09
2019-03-01T03:52:20.245Z,1006.11
2019-03-01T03:53:20.233Z,1006.10
2019-03-01T03:54:20.222Z,1006.08
2019-03-01T03:55:20.322Z,1006.12
2019-03-01T03:56:20.199Z,1006.10
2019-03-01T03:57:20.185Z,1006.08
2019-03-01T03:58:21.154Z,1006.08
2019-03-01T03:59:21.154Z,1006.09
2019-03-01T04:00:20.176Z,1006.11
2019-03-01T04:01:20.651Z,1006.14
2019-03-01T04:02:20.649Z,1006.10
2019-03-01T04:03:20.653Z,1006.14
2019-03-01T04:04:20.119Z,1006.09
2019-03-01T04:05:20.138Z,1006.08
2019-03-01T04:06:20.653Z,1006.09
2019-03-01T04:07:20.081Z,1006.12
2019-03-01T04:08:20.069Z,1006.11
2019-03-01T04:09:20.653Z,1006.10
2019-03-01T04:10:20.081Z,1006.09
2019-03-01T04:11:20.651Z,1006.13
2019-03-01T04:12:20.023Z,1006.12
2019-03-01T04:13:20.029Z,1006.07
2019-03-01T04:14:19.998Z,1006.16
2019-03-01T04:15:20.664Z,1006.18
2019-03-01T04:16:19.988Z,1006.11
2019-03-01T04:17:19.969Z,1006.14
2019-03-01T04:18:19.957Z,1006.15
2019-03-01T04:19:19.945Z,1006.13
2019-03-01T04:20:20.662Z,1006.13
2019-03-01T04:21:19.938Z,1006.15
2019-03-01T04:22:20.651Z,1006.10
2019-03-01T04:23:20.654Z,1006.06
2019-03-01T04:24:19.893Z,1006.11
2019-03-01T04:25:19.898Z,1006.12
2019-03-01T04:26:19.891Z,1006.09
2019-03-01T04:27:19.857Z,1005.98
2019-03-01T04:28:20.659Z,1006.08
2019-03-01T04:29:19.837Z,1006.03
2019-03-01T04:30:19.840Z,1006.02
2019-03-01T04:31:19.827Z,1006.06
2019-03-01T04:32:19.801Z,1006.07
2019-03-01T04:33:19.795Z,1006.04
2019-03-01T04:34:19.780Z,1006.05
2019-03-01T04:35:19.781Z,1006.00
2019-03-01T04:36:19.777Z,1006.06
2019-03-01T04:37:19.749Z,1006.02
2019-03-01T04:38:19.736Z,1006.02
2019-03-01T04:39:19.732Z,1006.01
2019-03-01T04:40:19.736Z,1006.06
2019-03-01T04:41:20.652Z,1005.99
2019-03-01T04:42:19.700Z,1006.03
2019-03-01T04:43:20.652Z,1006.09
2019-03-01T04:44:19.669Z,1006.09
2019-03-01T04:45:19.671Z,1005.98
2019-03-01T04:46:19.649Z,1006.10
2019-03-01T04:47:19.649Z,1006.05
2019-03-01T04:48:19.626Z,1006.04
2019-03-01T04:49:19.613Z,1006.02
2019-03-01T04:50:20.170Z,1006.05
2019-03-01T04:51:20.153Z,1005.97
2019-03-01T04:52:19.596Z,1006.01
2019-03-01T04:53:19.574Z,1005.99
2019-03-01T04:54:19.563Z,1005.97
2019-03-01T04:55:19.569Z,1006.03
2019-03-01T04:56:19.537Z,1006.01
2019-03-01T04:57:19.540Z,1005.99
2019-03-01T04:58:19.517Z,1006.06
2019-03-01T04:59:19.510Z,1006.04
2019-03-01T05:00:19.505Z,1006.04
2019-03-01T05:01:19.482Z,1006.06
2019-03-01T05:02:19.483Z,1006.06
2019-03-01T05:03:19.462Z,1006.04
2019-03-01T05:04:19.450Z,1006.06
2019-03-01T05:05:20.169Z,1006.01
2019-03-01T05:06:19.425Z,1006.04
2019-03-01T05:07:19.429Z,1006.06
2019-03-01T05:08:19.406Z,1006.07
2019-03-01T05:09:19.395Z,1006.12
2019-03-01T05:10:19.398Z,1006.01
2019-03-01T05:11:19.374Z,1006.12
2019-03-01T05:12:19.664Z,1006.12
2019-03-01T05:13:19.349Z,1006.15
2019-03-01T05:14:19.340Z,1006.14
2019-03-01T05:15:20.168Z,1006.20
2019-03-01T05:16:19.319Z,1006.08
2019-03-01T05:17:19.310Z,1006.18
2019-03-01T05:18:19.307Z,1006.11
2019-03-01T05:19:19.289Z,1006.17
2019-03-01T05:20:20.170Z,1006.17
2019-03-01T05:21:19.267Z,1006.15
2019-03-01T05:22:19.250Z,1006.15
2019-03-01T05:23:19.255Z,1006.18
2019-03-01T05:24:19.230Z,1006.16
2019-03-01T05:25:19.257Z,1006.19
2019-03-01T05:26:19.210Z,1006.17
2019-03-01T05:27:20.153Z,1006.22
2019-03-01T05:28:19.667Z,1006.16
2019-03-01T05:29:20.156Z,1006.26
2019-03-01T05:30:20.184Z,1006.18
2019-03-01T05:31:19.655Z,1006.19
2019-03-01T05:32:19.140Z,1006.21
2019-03-01T05:33:19.144Z,1006.18
2019-03-01T05:34:19.119Z,1006.22
2019-03-01T05:35:19.107Z,1006.23
2019-03-01T05:36:19.108Z,1006.24
2019-03-01T05:37:19.084Z,1006.21
2019-03-01T05:38:22.070Z,1006.14
2019-03-01T05:39:19.065Z,1006.21
2019-03-01T05:40:19.049Z,1006.21
2019-03-01T05:41:19.058Z,1006.30
2019-03-01T05:42:19.655Z,1006.23
2019-03-01T05:43:19.028Z,1006.27
2019-03-01T05:44:19.655Z,1006.30
2019-03-01T05:45:19.027Z,1006.28
2019-03-01T05:46:18.995Z,1006.25
2019-03-01T05:47:18.975Z,1006.26
2019-03-01T05:48:18.975Z,1006.23
2019-03-01T05:49:18.953Z,1006.26
2019-03-01T05:50:18.948Z,1006.22
2019-03-01T05:51:19.683Z,1006.30
2019-03-01T05:52:19.654Z,1006.37
2019-03-01T05:53:19.169Z,1006.31
2019-03-01T05:54:18.896Z,1006.35
2019-03-01T05:55:18.886Z,1006.33
2019-03-01T05:56:19.673Z,1006.28
2019-03-01T05:57:18.869Z,1006.29
2019-03-01T05:58:18.864Z,1006.32
2019-03-01T05:59:18.845Z,1006.28
2019-03-01T06:00:18.832Z,1006.31
2019-03-01T06:01:19.674Z,1006.37
2019-03-01T06:02:19.661Z,1006.24
2019-03-01T06:03:18.820Z,1006.34
2019-03-01T06:04:18.788Z,1006.49
2019-03-01T06:05:18.798Z,1006.46
2019-03-01T06:06:18.779Z,1006.45
2019-03-01T06:07:19.660Z,1006.47
2019-03-01T06:08:18.748Z,1006.49
2019-03-01T06:09:18.740Z,1006.41
2019-03-01T06:10:18.724Z,1006.49
2019-03-01T06:11:18.721Z,1006.49
2019-03-01T06:12:18.704Z,1006.51
2019-03-01T06:13:19.660Z,1006.52
2019-03-01T06:14:18.686Z,1006.54
2019-03-01T06:15:18.667Z,1006.56
2019-03-01T06:16:18.669Z,1006.55
2019-03-01T06:17:19.158Z,1006.61
2019-03-01T06:18:19.157Z,1006.50
2019-03-01T06:19:18.636Z,1006.61
2019-03-01T06:20:18.613Z,1006.59
2019-03-01T06:21:18.619Z,1006.64
2019-03-01T06:22:18.591Z,1006.68
2019-03-01T06:23:18.581Z,1006.71
2019-03-01T06:24:18.595Z,1006.70
2019-03-01T06:25:18.576Z,1006.72
2019-03-01T06:26:18.561Z,1006.63
2019-03-01T06:27:18.539Z,1006.75
2019-03-01T06:28:19.155Z,1006.72
2019-03-01T06:29:18.523Z,1006.70
2019-03-01T06:30:19.160Z,1006.78
2019-03-01T06:31:18.502Z,1006.71
2019-03-01T06:32:19.174Z,1006.75
2019-03-01T06:33:18.467Z,1006.76
2019-03-01T06:34:18.470Z,1006.77
2019-03-01T06:35:18.452Z,1006.78
2019-03-01T06:36:19.534Z,1006.77
2019-03-01T06:37:18.425Z,1006.77
2019-03-01T06:38:18.413Z,1006.79
2019-03-01T06:39:18.413Z,1006.77
2019-03-01T06:40:18.403Z,1006.77
2019-03-01T06:41:18.394Z,1006.82
2019-03-01T06:42:18.385Z,1006.79
2019-03-01T06:43:18.360Z,1006.80
2019-03-01T06:44:18.359Z,1006.78
2019-03-01T06:45:18.340Z,1006.80
2019-03-01T06:46:18.344Z,1006.78
2019-03-01T06:47:18.333Z,1006.84
2019-03-01T06:48:18.309Z,1006.83
2019-03-01T06:49:18.311Z,1006.81
2019-03-01T06:50:18.302Z,1006.87
2019-03-01T06:51:18.288Z,1006.91
2019-03-01T06:52:18.265Z,1006.86
2019-03-01T06:53:18.261Z,1006.91
2019-03-01T06:54:18.268Z,1006.89
2019-03-01T06:55:18.266Z,1006.89
2019-03-01T06:56:18.282Z,1006.89
2019-03-01T06:57:19.185Z,1006.89
2019-03-01T06:58:19.160Z,1006.80
2019-03-01T06:59:18.199Z,1006.93
2019-03-01T07:00:18.213Z,1006.89
2019-03-01T07:01:18.166Z,1006.93
2019-03-01T07:02:18.158Z,1006.89
2019-03-01T07:03:18.661Z,1006.93
2019-03-01T07:04:18.131Z,1006.91
2019-03-01T07:05:18.135Z,1006.91
2019-03-01T07:06:18.112Z,1006.91
2019-03-01T07:07:18.100Z,1006.91
2019-03-01T07:08:18.672Z,1006.98
2019-03-01T07:09:18.088Z,1006.94
2019-03-01T07:10:18.088Z,1006.98
2019-03-01T07:11:18.662Z,1006.95
2019-03-01T07:12:18.661Z,1007.07
2019-03-01T07:13:18.034Z,1007.01
2019-03-01T07:14:18.027Z,1007.04
2019-03-01T07:15:18.173Z,1007.07
2019-03-01T07:16:18.010Z,1007.08
2019-03-01T07:17:17.989Z,1007.13
2019-03-01T07:18:17.981Z,1007.10
2019-03-01T07:19:17.969Z,1007.13
2019-03-01T07:20:17.957Z,1007.15
2019-03-01T07:21:17.953Z,1007.15
2019-03-01T07:22:18.663Z,1007.12
2019-03-01T07:23:18.665Z,1007.19
2019-03-01T07:24:18.023Z,1007.20
2019-03-01T07:25:17.906Z,1007.20
2019-03-01T07:26:17.944Z,1007.17
2019-03-01T07:27:18.668Z,1007.27
2019-03-01T07:28:17.873Z,1007.21
2019-03-01T07:29:17.862Z,1007.26
2019-03-01T07:30:17.855Z,1007.25
2019-03-01T07:31:18.174Z,1007.29
2019-03-01T07:32:18.676Z,1007.29
2019-03-01T07:33:17.818Z,1007.28
2019-03-01T07:34:17.804Z,1007.29
2019-03-01T07:35:17.796Z,1007.33
2019-03-01T07:36:17.794Z,1007.35
2019-03-01T07:37:17.775Z,1007.32
2019-03-01T07:38:17.777Z,1007.32
2019-03-01T07:39:18.666Z,1007.39
2019-03-01T07:40:17.745Z,1007.32
2019-03-01T07:41:17.746Z,1007.35
2019-03-01T07:42:17.724Z,1007.37
2019-03-01T07:43:18.668Z,1007.40
2019-03-01T07:44:17.703Z,1007.43
2019-03-01T07:45:17.690Z,1007.41
2019-03-01T07:46:17.689Z,1007.45
2019-03-01T07:47:18.665Z,1007.51
2019-03-01T07:48:17.658Z,1007.48
2019-03-01T07:49:17.648Z,1007.55
2019-03-01T07:50:18.162Z,1007.53
2019-03-01T07:51:17.678Z,1007.53
2019-03-01T07:52:17.616Z,1007.56
2019-03-01T07:53:17.603Z,1007.63
2019-03-01T07:54:18.038Z,1007.62
2019-03-01T07:55:18.166Z,1007.68
2019-03-01T07:56:17.582Z,1007.63
2019-03-01T07:57:17.574Z,1007.69
2019-03-01T07:58:17.550Z,1007.63
2019-03-01T07:59:17.541Z,1007.68
2019-03-01T08:00:17.528Z,1007.76
2019-03-01T08:01:17.552Z,1007.77
2019-03-01T08:02:17.505Z,1007.77
2019-03-01T08:03:17.495Z,1007.81
2019-03-01T08:04:17.489Z,1007.83
2019-03-01T08:05:17.479Z,1007.89
2019-03-01T08:06:17.465Z,1007.87
2019-03-01T08:07:20.546Z,1007.88
2019-03-01T08:08:17.442Z,1007.86
2019-03-01T08:09:17.434Z,1007.92
2019-03-01T08:10:22.140Z,1007.88
2019-03-01T08:11:17.411Z,1007.88
2019-03-01T08:12:17.411Z,1007.91
2019-03-01T08:13:18.358Z,1007.90
2019-03-01T08:14:17.377Z,1008.09
2019-03-01T08:15:17.373Z,1008.09
2019-03-01T08:16:20.076Z,1008.04
2019-03-01T08:17:17.364Z,1008.08
2019-03-01T08:18:17.338Z,1008.14
2019-03-01T08:19:22.412Z,1008.09
2019-03-01T08:20:17.322Z,1008.13
2019-03-01T08:21:17.310Z,1008.13
2019-03-01T08:22:20.910Z,1008.08
2019-03-01T08:23:17.279Z,1008.20
2019-03-01T08:24:18.215Z,1008.19
2019-03-01T08:25:22.819Z,1008.20
2019-03-01T08:26:17.283Z,1008.20
2019-03-01T08:27:17.279Z,1008.22
2019-03-01T08:28:18.579Z,1008.24
2019-03-01T08:29:17.212Z,1008.24
2019-03-01T08:30:17.210Z,1008.20
2019-03-01T08:31:17.422Z,1008.29
2019-03-01T08:32:17.189Z,1008.32
2019-03-01T08:33:17.188Z,1008.30
2019-03-01T08:34:17.758Z,1008.32
2019-03-01T08:35:17.145Z,1008.34
2019-03-01T08:36:17.138Z,1008.37
2019-03-01T08:37:17.614Z,1008.43
2019-03-01T08:38:17.114Z,1008.29
2019-03-01T08:39:17.100Z,1008.37
2019-03-01T08:40:17.109Z,1008.34
2019-03-01T08:41:17.082Z,1008.36
2019-03-01T08:42:17.091Z,1008.36
2019-03-01T08:43:17.062Z,1008.41
2019-03-01T08:44:19.444Z,1008.39
2019-03-01T08:45:17.039Z,1008.37
2019-03-01T08:46:17.049Z,1008.43
2019-03-01T08:47:23.258Z,1008.45
2019-03-01T08:48:17.018Z,1008.42
2019-03-01T08:49:16.993Z,1008.40
2019-03-01T08:50:16.984Z,1008.44
2019-03-01T08:51:16.971Z,1008.51
2019-03-01T08:52:16.984Z,1008.39
2019-03-01T08:53:16.949Z,1008.45
2019-03-01T08:54:16.938Z,1008.48
2019-03-01T08:55:16.926Z,1008.47
2019-03-01T08:56:25.578Z,1008.51
2019-03-01T08:57:16.924Z,1008.57
2019-03-01T08:58:16.898Z,1008.48
2019-03-01T08:59:17.597Z,1008.62
2019-03-01T09:00:16.871Z,1008.65
2019-03-01T09:01:16.856Z,1008.64
2019-03-01T09:02:16.872Z,1008.69
2019-03-01T09:03:22.214Z,1008.68
2019-03-01T09:04:17.638Z,1008.68
2019-03-01T09:05:16.818Z,1008.74
2019-03-01T09:06:16.918Z,1008.72
2019-03-01T09:07:16.815Z,1008.75
2019-03-01T09:08:16.779Z,1008.78
2019-03-01T09:09:20.973Z,1008.78
2019-03-01T09:10:16.761Z,1008.79
2019-03-01T09:11:16.749Z,1008.80
2019-03-01T09:12:16.759Z,1008.81
2019-03-01T09:13:16.726Z,1008.81
2019-03-01T09:14:16.716Z,1008.86
2019-03-01T09:15:16.705Z,1008.85
2019-03-01T09:16:16.694Z,1008.90
2019-03-01T09:17:16.694Z,1008.93
2019-03-01T09:18:16.685Z,1008.94
2019-03-01T09:19:16.660Z,1008.91
2019-03-01T09:20:16.653Z,1008.91
2019-03-01T09:21:16.646Z,1008.93
2019-03-01T09:22:16.680Z,1008.93
2019-03-01T09:23:24.224Z,1008.88
2019-03-01T09:24:16.606Z,1008.92
2019-03-01T09:25:16.596Z,1008.95
2019-03-01T09:26:19.634Z,1008.90
2019-03-01T09:27:16.576Z,1008.98
2019-03-01T09:28:16.583Z,1009.01
2019-03-01T09:29:18.455Z,1009.00
2019-03-01T09:30:16.540Z,1009.02
2019-03-01T09:31:16.527Z,1009.05
2019-03-01T09:32:17.171Z,1008.99
2019-03-01T09:33:17.158Z,1008.97
2019-03-01T09:34:16.510Z,1009.04
2019-03-01T09:35:16.482Z,1009.09
2019-03-01T09:36:17.806Z,1009.05
2019-03-01T09:37:17.170Z,1009.07
2019-03-01T09:38:16.473Z,1009.09
2019-03-01T09:39:18.112Z,1009.07
2019-03-01T09:40:16.428Z,1009.07
2019-03-01T09:41:16.419Z,1009.09
2019-03-01T09:42:17.171Z,1009.11
2019-03-01T09:43:16.693Z,1009.20
2019-03-01T09:44:17.176Z,1009.19
2019-03-01T09:45:16.372Z,1009.15
2019-03-01T09:46:16.367Z,1009.20
2019-03-01T09:47:16.371Z,1009.16
2019-03-01T09:48:16.360Z,1009.16
2019-03-01T09:49:17.174Z,1009.19
2019-03-01T09:50:16.319Z,1009.28
2019-03-01T09:51:16.313Z,1009.15
2019-03-01T09:52:16.295Z,1009.21
2019-03-01T09:53:16.303Z,1009.26
2019-03-01T09:54:16.274Z,1009.24
2019-03-01T09:55:17.172Z,1009.21
2019-03-01T09:56:16.255Z,1009.29
2019-03-01T09:57:16.500Z,1009.23
2019-03-01T09:58:16.252Z,1009.21
2019-03-01T09:59:16.216Z,1009.27
2019-03-01T10:00:16.209Z,1009.29
2019-03-01T10:01:17.173Z,1009.33
2019-03-01T10:02:17.176Z,1009.31
2019-03-01T10:03:16.684Z,1009.26
2019-03-01T10:04:16.175Z,1009.32
2019-03-01T10:05:16.151Z,1009.33
2019-03-01T10:06:16.141Z,1009.30
2019-03-01T10:07:16.139Z,1009.37
2019-03-01T10:08:16.132Z,1009.43
2019-03-01T10:09:16.183Z,1009.46
2019-03-01T10:10:16.688Z,1009.49
2019-03-01T10:11:16.100Z,1009.54
2019-03-01T10:12:16.675Z,1009.55
2019-03-01T10:13:16.081Z,1009.48
2019-03-01T10:14:16.063Z,1009.52
2019-03-01T10:15:16.041Z,1009.62
2019-03-01T10:16:16.031Z,1009.58
2019-03-01T10:17:16.019Z,1009.64
2019-03-01T10:18:16.037Z,1009.63
2019-03-01T10:19:16.022Z,1009.65
2019-03-01T10:20:15.986Z,1009.63
2019-03-01T10:21:15.977Z,1009.68
2019-03-01T10:22:15.966Z,1009.65
2019-03-01T10:23:16.678Z,1009.71
2019-03-01T10:24:15.957Z,1009.65
2019-03-01T10:25:15.932Z,1009.71
2019-03-01T10:26:16.692Z,1009.75
2019-03-01T10:27:15.909Z,1009.70
2019-03-01T10:28:15.897Z,1009.79
2019-03-01T10:29:15.913Z,1009.78
2019-03-01T10:30:15.875Z,1009.76
2019-03-01T10:31:15.863Z,1009.77
2019-03-01T10:32:15.855Z,1009.79
2019-03-01T10:33:15.849Z,1009.82
2019-03-01T10:34:16.196Z,1009.78
2019-03-01T10:35:15.829Z,1009.84
2019-03-01T10:36:15.807Z,1009.90
2019-03-01T10:37:15.797Z,1009.85
2019-03-01T10:38:15.786Z,1009.87
2019-03-01T10:39:16.687Z,1009.87
2019-03-01T10:40:15.773Z,1009.89
2019-03-01T10:41:16.678Z,1009.82
2019-03-01T10:42:16.676Z,1009.80
2019-03-01T10:43:15.732Z,1009.88
2019-03-01T10:44:15.732Z,1009.90
2019-03-01T10:45:15.718Z,1009.93
2019-03-01T10:46:16.674Z,1009.95
2019-03-01T10:47:15.688Z,1009.95
2019-03-01T10:48:15.677Z,1009.98
2019-03-01T10:49:15.679Z,1009.99
2019-03-01T10:50:15.696Z,1009.97
2019-03-01T10:51:15.647Z,1009.98
2019-03-01T10:52:15.633Z,1009.96
2019-03-01T10:53:15.713Z,1010.02
2019-03-01T10:54:15.621Z,1010.11
2019-03-01T10:55:15.614Z,1009.99
2019-03-01T10:56:15.590Z,1010.03
2019-03-01T10:57:15.581Z,1009.99
2019-03-01T10:58:15.566Z,1010.02
2019-03-01T10:59:15.564Z,1010.05
2019-03-01T11:00:15.557Z,1010.09
2019-03-01T11:01:15.537Z,1010.04
2019-03-01T11:02:16.176Z,1010.08
2019-03-01T11:03:15.515Z,1009.97
2019-03-01T11:04:15.504Z,1010.10
2019-03-01T11:05:15.514Z,1010.11
2019-03-01T11:06:16.185Z,1010.16
2019-03-01T11:07:15.475Z,1010.18
2019-03-01T11:08:15.456Z,1010.15
2019-03-01T11:09:15.466Z,1010.17
2019-03-01T11:10:15.460Z,1010.12
2019-03-01T11:11:15.427Z,1010.10
2019-03-01T11:12:15.418Z,1010.20
2019-03-01T11:13:15.407Z,1010.21
2019-03-01T11:14:15.407Z,1010.21
2019-03-01T11:15:15.381Z,1010.22
2019-03-01T11:16:15.692Z,1010.23
2019-03-01T11:17:15.358Z,1010.16
2019-03-01T11:18:15.349Z,1010.23
2019-03-01T11:19:15.353Z,1010.27
2019-03-01T11:20:15.324Z,1010.17
2019-03-01T11:21:15.329Z,1010.20
2019-03-01T11:22:15.306Z,1010.18
2019-03-01T11:23:16.193Z,1010.17
2019-03-01T11:24:15.295Z,1010.20
2019-03-01T11:25:15.275Z,1010.22
2019-03-01T11:26:15.700Z,1010.22
2019-03-01T11:27:16.179Z,1010.23
2019-03-01T11:28:16.179Z,1010.22
2019-03-01T11:29:15.244Z,1010.25
2019-03-01T11:30:15.226Z,1010.28
2019-03-01T11:31:15.219Z,1010.28
2019-03-01T11:32:15.199Z,1010.32
2019-03-01T11:33:15.197Z,1010.30
2019-03-01T11:34:15.190Z,1010.30
2019-03-01T11:35:15.168Z,1010.33
2019-03-01T11:36:15.164Z,1010.34
2019-03-01T11:37:15.148Z,1010.36
2019-03-01T11:38:15.137Z,1010.36
2019-03-01T11:39:15.137Z,1010.39
2019-03-01T11:40:15.115Z,1010.31
2019-03-01T11:41:15.120Z,1010.40
2019-03-01T11:42:15.102Z,1010.33
2019-03-01T11:43:15.688Z,1010.38
2019-03-01T11:44:15.696Z,1010.40
2019-03-01T11:45:15.059Z,1010.41
2019-03-01T11:46:15.050Z,1010.43
2019-03-01T11:47:15.049Z,1010.40
2019-03-01T11:48:15.027Z,1010.44
2019-03-01T11:49:15.018Z,1010.42
2019-03-01T11:50:15.013Z,1010.41
2019-03-01T11:51:14.993Z,1010.44
2019-03-01T11:52:15.189Z,1010.43
2019-03-01T11:53:14.977Z,1010.43
2019-03-01T11:54:14.976Z,1010.37
2019-03-01T11:55:15.678Z,1010.56
2019-03-01T11:56:14.940Z,1010.59
2019-03-01T11:57:14.933Z,1010.53
2019-03-01T11:58:14.938Z,1010.61
2019-03-01T11:59:15.681Z,1010.53
2019-03-01T12:00:14.946Z,1010.51
2019-03-01T12:01:17.380Z,1010.63
2019-03-01T12:02:14.880Z,1010.65
2019-03-01T12:03:15.516Z,1010.58
2019-03-01T12:04:14.849Z,1010.64
2019-03-01T12:05:14.844Z,1010.61